sensor_id;sensor_type;location;lat;lon;timestamp;pressure;altitude;pressure_sealevel;temperature;humidity
37832;BME280;23671;38.090;-122.570;2023-08-01T00:02:21;101251.06;;;29.69;34.36
37832;BME280;23671;38.090;-122.570;2023-08-01T00:04:48;101247.13;;;29.65;33.75
37832;BME280;23671;38.090;-122.570;2023-08-01T00:07:18;101245.25;;;29.66;34.17
37832;BME280;23671;38.090;-122.570;2023-08-01T00:09:45;101248.19;;;29.64;34.48
37832;BME280;23671;38.090;-122.570;2023-08-01T00:12:12;101242.13;;;29.62;33.46
37832;BME280;23671;38.090;-122.570;2023-08-01T00:14:42;101237.53;;;29.63;34.09
37832;BME280;23671;38.090;-122.570;2023-08-01T00:17:18;101228.53;;;29.62;34.16
37832;BME280;23671;38.090;-122.570;2023-08-01T00:19:45;101226.16;;;29.54;33.70
37832;BME280;23671;38.090;-122.570;2023-08-01T00:22:12;101233.84;;;29.57;33.95
37832;BME280;23671;38.090;-122.570;2023-08-01T00:27:23;101231.97;;;29.57;34.07
37832;BME280;23671;38.090;-122.570;2023-08-01T00:29:58;101234.19;;;29.49;33.49
37832;BME280;23671;38.090;-122.570;2023-08-01T00:32:28;101231.94;;;29.46;33.46
37832;BME280;23671;38.090;-122.570;2023-08-01T00:35:00;101234.88;;;29.33;33.79
37832;BME280;23671;38.090;-122.570;2023-08-01T00:37:28;101225.94;;;29.26;33.35
37832;BME280;23671;38.090;-122.570;2023-08-01T00:39:55;101223.69;;;29.05;33.54
37832;BME280;23671;38.090;-122.570;2023-08-01T00:42:29;101215.66;;;28.98;33.61
37832;BME280;23671;38.090;-122.570;2023-08-01T00:45:08;101213.75;;;28.99;33.53
37832;BME280;23671;38.090;-122.570;2023-08-01T00:47:36;101217.56;;;28.80;33.87
37832;BME280;23671;38.090;-122.570;2023-08-01T00:50:09;101219.75;;;28.71;33.64
37832;BME280;23671;38.090;-122.570;2023-08-01T00:52:36;101211.81;;;28.69;33.78
37832;BME280;23671;38.090;-122.570;2023-08-01T00:55:13;101216.88;;;28.66;34.00
37832;BME280;23671;38.090;-122.570;2023-08-01T00:57:54;101215.13;;;28.53;33.85
37832;BME280;23671;38.090;-122.570;2023-08-01T01:00:26;101216.03;;;28.47;33.85
37832;BME280;23671;38.090;-122.570;2023-08-01T01:02:57;101211.25;;;28.43;34.07
37832;BME280;23671;38.090;-122.570;2023-08-01T01:05:28;101200.09;;;28.33;33.96
37832;BME280;23671;38.090;-122.570;2023-08-01T01:08:02;101201.16;;;28.32;34.15
37832;BME280;23671;38.090;-122.570;2023-08-01T01:10:29;101183.13;;;28.19;33.96
37832;BME280;23671;38.090;-122.570;2023-08-01T01:13:01;101183.19;;;28.13;33.97
37832;BME280;23671;38.090;-122.570;2023-08-01T01:15:34;101201.97;;;28.14;34.13
37832;BME280;23671;38.090;-122.570;2023-08-01T01:18:01;101208.38;;;28.02;34.21
37832;BME280;23671;38.090;-122.570;2023-08-01T01:20:34;101197.22;;;28.28;34.22
37832;BME280;23671;38.090;-122.570;2023-08-01T01:23:06;101201.22;;;28.43;34.26
37832;BME280;23671;38.090;-122.570;2023-08-01T01:25:39;101204.69;;;28.50;34.33
37832;BME280;23671;38.090;-122.570;2023-08-01T01:28:11;101193.56;;;28.58;34.51
37832;BME280;23671;38.090;-122.570;2023-08-01T01:30:38;101206.91;;;28.60;34.75
37832;BME280;23671;38.090;-122.570;2023-08-01T01:33:12;101211.91;;;28.63;34.81
37832;BME280;23671;38.090;-122.570;2023-08-01T01:35:42;101203.53;;;28.64;34.95
37832;BME280;23671;38.090;-122.570;2023-08-01T01:38:10;101208.13;;;28.64;34.85
37832;BME280;23671;38.090;-122.570;2023-08-01T01:40:42;101209.78;;;28.65;34.88
37832;BME280;23671;38.090;-122.570;2023-08-01T01:43:11;101214.63;;;28.63;35.02
37832;BME280;23671;38.090;-122.570;2023-08-01T01:45:41;101224.44;;;28.64;34.88
37832;BME280;23671;38.090;-122.570;2023-08-01T01:48:14;101217.78;;;28.60;34.93
37832;BME280;23671;38.090;-122.570;2023-08-01T01:50:41;101224.53;;;28.57;34.99
37832;BME280;23671;38.090;-122.570;2023-08-01T01:53:08;101229.34;;;28.55;34.80
37832;BME280;23671;38.090;-122.570;2023-08-01T01:55:35;101220.81;;;28.52;34.87
37832;BME280;23671;38.090;-122.570;2023-08-01T01:58:02;101230.44;;;28.48;34.81
37832;BME280;23671;38.090;-122.570;2023-08-01T02:00:29;101230.88;;;28.45;35.24
37832;BME280;23671;38.090;-122.570;2023-08-01T02:02:59;101225.47;;;28.45;34.13
37832;BME280;23671;38.090;-122.570;2023-08-01T02:05:30;101237.81;;;28.41;34.60
37832;BME280;23671;38.090;-122.570;2023-08-01T02:07:57;101244.75;;;28.37;34.65
37832;BME280;23671;38.090;-122.570;2023-08-01T02:10:24;101251.94;;;28.31;34.97
37832;BME280;23671;38.090;-122.570;2023-08-01T02:12:51;101256.97;;;28.28;35.06
37832;BME280;23671;38.090;-122.570;2023-08-01T02:15:18;101242.78;;;28.26;35.05
37832;BME280;23671;38.090;-122.570;2023-08-01T02:17:45;101243.88;;;28.25;35.04
37832;BME280;23671;38.090;-122.570;2023-08-01T02:20:12;101240.97;;;28.20;34.96
37832;BME280;23671;38.090;-122.570;2023-08-01T02:22:39;101240.81;;;28.15;34.83
37832;BME280;23671;38.090;-122.570;2023-08-01T02:25:07;101248.78;;;28.10;35.04
37832;BME280;23671;38.090;-122.570;2023-08-01T02:27:34;101248.41;;;28.06;34.99
37832;BME280;23671;38.090;-122.570;2023-08-01T02:30:01;101258.88;;;28.03;34.96
37832;BME280;23671;38.090;-122.570;2023-08-01T02:32:28;101258.75;;;27.98;35.27
37832;BME280;23671;38.090;-122.570;2023-08-01T02:34:55;101257.91;;;27.91;35.02
37832;BME280;23671;38.090;-122.570;2023-08-01T02:37:26;101258.59;;;27.86;35.30
37832;BME280;23671;38.090;-122.570;2023-08-01T02:39:58;101259.00;;;27.83;34.94
37832;BME280;23671;38.090;-122.570;2023-08-01T02:42:25;101255.53;;;27.76;34.71
37832;BME280;23671;38.090;-122.570;2023-08-01T02:44:52;101261.00;;;27.69;34.69
37832;BME280;23671;38.090;-122.570;2023-08-01T02:47:19;101263.56;;;27.64;34.83
37832;BME280;23671;38.090;-122.570;2023-08-01T02:49:46;101267.38;;;27.57;34.69
37832;BME280;23671;38.090;-122.570;2023-08-01T02:52:13;101270.50;;;27.54;34.87
37832;BME280;23671;38.090;-122.570;2023-08-01T02:54:41;101273.28;;;27.47;34.95
37832;BME280;23671;38.090;-122.570;2023-08-01T02:57:13;101272.03;;;27.43;34.31
37832;BME280;23671;38.090;-122.570;2023-08-01T02:59:40;101275.63;;;27.37;34.92
37832;BME280;23671;38.090;-122.570;2023-08-01T03:02:07;101289.81;;;27.33;34.89
37832;BME280;23671;38.090;-122.570;2023-08-01T03:04:34;101285.66;;;27.24;35.22
37832;BME280;23671;38.090;-122.570;2023-08-01T03:07:02;101290.69;;;27.20;34.94
37832;BME280;23671;38.090;-122.570;2023-08-01T03:09:29;101285.13;;;27.09;35.14
37832;BME280;23671;38.090;-122.570;2023-08-01T03:11:56;101291.19;;;27.04;35.13
37832;BME280;23671;38.090;-122.570;2023-08-01T03:14:23;101292.25;;;27.03;35.11
37832;BME280;23671;38.090;-122.570;2023-08-01T03:16:50;101290.41;;;26.90;34.96
37832;BME280;23671;38.090;-122.570;2023-08-01T03:19:17;101283.97;;;26.85;35.08
37832;BME280;23671;38.090;-122.570;2023-08-01T03:21:44;101290.84;;;26.81;34.83
37832;BME280;23671;38.090;-122.570;2023-08-01T03:24:15;101285.47;;;26.74;34.88
37832;BME280;23671;38.090;-122.570;2023-08-01T03:26:42;101285.44;;;26.68;34.66
37832;BME280;23671;38.090;-122.570;2023-08-01T03:29:09;101301.69;;;26.61;35.07
37832;BME280;23671;38.090;-122.570;2023-08-01T03:31:36;101302.56;;;26.55;35.14
37832;BME280;23671;38.090;-122.570;2023-08-01T03:34:06;101301.31;;;26.45;35.11
37832;BME280;23671;38.090;-122.570;2023-08-01T03:36:35;101297.97;;;26.36;34.90
37832;BME280;23671;38.090;-122.570;2023-08-01T03:39:03;101305.28;;;26.29;34.96
37832;BME280;23671;38.090;-122.570;2023-08-01T03:41:40;101303.22;;;26.18;34.99
37832;BME280;23671;38.090;-122.570;2023-08-01T03:44:13;101305.06;;;26.11;35.02
37832;BME280;23671;38.090;-122.570;2023-08-01T03:46:44;101305.50;;;26.08;35.30
37832;BME280;23671;38.090;-122.570;2023-08-01T03:49:14;101306.94;;;25.97;34.29
37832;BME280;23671;38.090;-122.570;2023-08-01T03:51:41;101311.94;;;25.87;35.01
37832;BME280;23671;38.090;-122.570;2023-08-01T03:54:11;101312.13;;;25.79;35.10
37832;BME280;23671;38.090;-122.570;2023-08-01T03:56:41;101315.22;;;25.70;35.12
37832;BME280;23671;38.090;-122.570;2023-08-01T03:59:13;101310.22;;;25.67;35.28
37832;BME280;23671;38.090;-122.570;2023-08-01T04:01:43;101311.22;;;25.59;35.51
37832;BME280;23671;38.090;-122.570;2023-08-01T04:04:11;101318.50;;;25.52;35.46
37832;BME280;23671;38.090;-122.570;2023-08-01T04:06:38;101313.91;;;25.46;35.40
37832;BME280;23671;38.090;-122.570;2023-08-01T04:09:05;101315.34;;;25.42;35.29
37832;BME280;23671;38.090;-122.570;2023-08-01T04:11:33;101313.84;;;25.33;35.50
37832;BME280;23671;38.090;-122.570;2023-08-01T04:14:00;101322.13;;;25.25;35.10
37832;BME280;23671;38.090;-122.570;2023-08-01T04:16:27;101313.75;;;25.13;35.23
37832;BME280;23671;38.090;-122.570;2023-08-01T04:18:55;101314.75;;;25.06;35.43
37832;BME280;23671;38.090;-122.570;2023-08-01T04:21:22;101315.56;;;25.00;35.12
37832;BME280;23671;38.090;-122.570;2023-08-01T04:23:49;101316.38;;;24.94;35.47
37832;BME280;23671;38.090;-122.570;2023-08-01T04:26:16;101320.47;;;24.83;35.52
37832;BME280;23671;38.090;-122.570;2023-08-01T04:28:45;101323.78;;;24.79;35.60
37832;BME280;23671;38.090;-122.570;2023-08-01T04:31:12;101308.94;;;24.68;35.40
37832;BME280;23671;38.090;-122.570;2023-08-01T04:33:39;101317.81;;;24.62;35.45
37832;BME280;23671;38.090;-122.570;2023-08-01T04:36:06;101319.84;;;24.54;35.65
37832;BME280;23671;38.090;-122.570;2023-08-01T04:38:50;101320.41;;;24.49;35.55
37832;BME280;23671;38.090;-122.570;2023-08-01T04:41:21;101323.09;;;24.43;35.66
37832;BME280;23671;38.090;-122.570;2023-08-01T04:43:48;101325.94;;;24.34;35.71
37832;BME280;23671;38.090;-122.570;2023-08-01T04:46:18;101327.13;;;24.25;35.53
37832;BME280;23671;38.090;-122.570;2023-08-01T04:48:48;101326.66;;;24.22;35.65
37832;BME280;23671;38.090;-122.570;2023-08-01T04:51:15;101329.31;;;24.15;35.74
37832;BME280;23671;38.090;-122.570;2023-08-01T04:53:42;101325.25;;;24.05;35.94
37832;BME280;23671;38.090;-122.570;2023-08-01T04:56:09;101328.16;;;24.03;35.80
37832;BME280;23671;38.090;-122.570;2023-08-01T04:58:39;101330.28;;;23.93;35.87
37832;BME280;23671;38.090;-122.570;2023-08-01T05:01:08;101332.09;;;23.86;35.97
37832;BME280;23671;38.090;-122.570;2023-08-01T05:03:38;101332.88;;;23.80;36.03
37832;BME280;23671;38.090;-122.570;2023-08-01T05:06:05;101335.53;;;23.74;36.18
37832;BME280;23671;38.090;-122.570;2023-08-01T05:08:36;101331.91;;;23.67;36.12
37832;BME280;23671;38.090;-122.570;2023-08-01T05:11:03;101324.78;;;23.59;36.14
37832;BME280;23671;38.090;-122.570;2023-08-01T05:13:34;101326.16;;;23.55;36.19
37832;BME280;23671;38.090;-122.570;2023-08-01T05:16:01;101334.00;;;23.50;36.37
37832;BME280;23671;38.090;-122.570;2023-08-01T05:18:29;101334.50;;;23.39;36.40
37832;BME280;23671;38.090;-122.570;2023-08-01T05:20:59;101340.00;;;23.31;36.32
37832;BME280;23671;38.090;-122.570;2023-08-01T05:23:26;101339.03;;;23.24;36.61
37832;BME280;23671;38.090;-122.570;2023-08-01T05:25:53;101342.31;;;23.19;36.51
37832;BME280;23671;38.090;-122.570;2023-08-01T05:28:21;101340.72;;;23.10;36.53
37832;BME280;23671;38.090;-122.570;2023-08-01T05:30:48;101342.13;;;23.06;36.54
37832;BME280;23671;38.090;-122.570;2023-08-01T05:33:15;101346.03;;;23.04;36.62
37832;BME280;23671;38.090;-122.570;2023-08-01T05:35:42;101339.44;;;22.92;36.75
37832;BME280;23671;38.090;-122.570;2023-08-01T05:38:09;101342.88;;;22.86;36.83
37832;BME280;23671;38.090;-122.570;2023-08-01T05:40:36;101341.13;;;22.78;36.89
37832;BME280;23671;38.090;-122.570;2023-08-01T05:43:03;101339.34;;;22.71;37.02
37832;BME280;23671;38.090;-122.570;2023-08-01T05:45:31;101341.59;;;22.67;37.02
37832;BME280;23671;38.090;-122.570;2023-08-01T05:47:58;101340.47;;;22.62;37.29
37832;BME280;23671;38.090;-122.570;2023-08-01T05:50:28;101344.53;;;22.58;37.10
37832;BME280;23671;38.090;-122.570;2023-08-01T05:52:55;101349.44;;;22.54;37.10
37832;BME280;23671;38.090;-122.570;2023-08-01T05:55:22;101347.47;;;22.48;37.13
37832;BME280;23671;38.090;-122.570;2023-08-01T05:57:50;101353.38;;;22.43;37.25
37832;BME280;23671;38.090;-122.570;2023-08-01T06:00:19;101355.16;;;22.36;37.38
37832;BME280;23671;38.090;-122.570;2023-08-01T06:02:47;101358.75;;;22.29;37.47
37832;BME280;23671;38.090;-122.570;2023-08-01T06:05:17;101357.25;;;22.26;37.40
37832;BME280;23671;38.090;-122.570;2023-08-01T06:07:46;101362.16;;;22.23;37.40
37832;BME280;23671;38.090;-122.570;2023-08-01T06:10:14;101367.59;;;22.15;37.45
37832;BME280;23671;38.090;-122.570;2023-08-01T06:12:41;101366.66;;;22.08;37.51
37832;BME280;23671;38.090;-122.570;2023-08-01T06:15:14;101368.03;;;22.04;37.76
37832;BME280;23671;38.090;-122.570;2023-08-01T06:17:41;101373.09;;;21.99;37.80
37832;BME280;23671;38.090;-122.570;2023-08-01T06:20:09;101375.31;;;21.95;37.77
37832;BME280;23671;38.090;-122.570;2023-08-01T06:22:37;101370.47;;;21.91;37.80
37832;BME280;23671;38.090;-122.570;2023-08-01T06:25:07;101376.56;;;21.85;37.90
37832;BME280;23671;38.090;-122.570;2023-08-01T06:27:34;101370.38;;;21.76;37.99
37832;BME280;23671;38.090;-122.570;2023-08-01T06:30:09;101377.13;;;21.72;37.88
37832;BME280;23671;38.090;-122.570;2023-08-01T06:32:36;101368.09;;;21.65;38.07
37832;BME280;23671;38.090;-122.570;2023-08-01T06:35:04;101374.16;;;21.59;38.17
37832;BME280;23671;38.090;-122.570;2023-08-01T06:37:31;101372.00;;;21.54;38.14
37832;BME280;23671;38.090;-122.570;2023-08-01T06:39:59;101381.78;;;21.47;38.39
37832;BME280;23671;38.090;-122.570;2023-08-01T06:42:29;101389.00;;;21.47;38.32
37832;BME280;23671;38.090;-122.570;2023-08-01T06:44:59;101388.72;;;21.42;38.38
37832;BME280;23671;38.090;-122.570;2023-08-01T06:47:26;101387.72;;;21.35;38.39
37832;BME280;23671;38.090;-122.570;2023-08-01T06:49:57;101390.09;;;21.30;38.23
37832;BME280;23671;38.090;-122.570;2023-08-01T06:52:24;101381.75;;;21.25;38.59
37832;BME280;23671;38.090;-122.570;2023-08-01T06:54:51;101392.16;;;21.20;38.42
37832;BME280;23671;38.090;-122.570;2023-08-01T06:57:22;101384.44;;;21.17;38.58
37832;BME280;23671;38.090;-122.570;2023-08-01T06:59:52;101375.38;;;21.10;38.66
37832;BME280;23671;38.090;-122.570;2023-08-01T07:02:19;101377.75;;;21.05;38.76
37832;BME280;23671;38.090;-122.570;2023-08-01T07:04:47;101381.81;;;21.01;38.78
37832;BME280;23671;38.090;-122.570;2023-08-01T07:07:14;101370.06;;;20.94;38.87
37832;BME280;23671;38.090;-122.570;2023-08-01T07:09:43;101370.22;;;20.92;38.86
37832;BME280;23671;38.090;-122.570;2023-08-01T07:12:11;101372.75;;;20.86;38.84
37832;BME280;23671;38.090;-122.570;2023-08-01T07:14:38;101365.38;;;20.79;39.02
37832;BME280;23671;38.090;-122.570;2023-08-01T07:17:08;101361.19;;;20.77;38.99
37832;BME280;23671;38.090;-122.570;2023-08-01T07:19:36;101371.44;;;20.73;39.01
37832;BME280;23671;38.090;-122.570;2023-08-01T07:22:03;101356.19;;;20.66;39.12
37832;BME280;23671;38.090;-122.570;2023-08-01T07:24:30;101365.09;;;20.66;39.10
37832;BME280;23671;38.090;-122.570;2023-08-01T07:26:57;101362.41;;;20.58;39.07
37832;BME280;23671;38.090;-122.570;2023-08-01T07:29:25;101366.25;;;20.56;39.23
37832;BME280;23671;38.090;-122.570;2023-08-01T07:31:55;101360.41;;;20.52;39.18
37832;BME280;23671;38.090;-122.570;2023-08-01T07:34:22;101359.25;;;20.47;39.19
37832;BME280;23671;38.090;-122.570;2023-08-01T07:36:52;101359.59;;;20.44;39.23
37832;BME280;23671;38.090;-122.570;2023-08-01T07:39:19;101363.94;;;20.37;39.35
37832;BME280;23671;38.090;-122.570;2023-08-01T07:41:46;101356.25;;;20.34;39.44
37832;BME280;23671;38.090;-122.570;2023-08-01T07:44:14;101365.44;;;20.31;39.49
37832;BME280;23671;38.090;-122.570;2023-08-01T07:46:41;101362.44;;;20.26;39.54
37832;BME280;23671;38.090;-122.570;2023-08-01T07:49:08;101365.63;;;20.22;39.62
37832;BME280;23671;38.090;-122.570;2023-08-01T07:51:35;101363.56;;;20.16;39.61
37832;BME280;23671;38.090;-122.570;2023-08-01T07:54:03;101368.28;;;20.14;39.71
37832;BME280;23671;38.090;-122.570;2023-08-01T07:56:30;101363.75;;;20.06;39.71
37832;BME280;23671;38.090;-122.570;2023-08-01T07:58:57;101358.56;;;20.05;39.65
37832;BME280;23671;38.090;-122.570;2023-08-01T08:01:24;101357.03;;;20.02;39.80
37832;BME280;23671;38.090;-122.570;2023-08-01T08:03:51;101354.03;;;19.97;39.88
37832;BME280;23671;38.090;-122.570;2023-08-01T08:06:21;101364.06;;;19.95;39.89
37832;BME280;23671;38.090;-122.570;2023-08-01T08:08:49;101367.25;;;19.90;39.72
37832;BME280;23671;38.090;-122.570;2023-08-01T08:11:16;101369.59;;;19.85;40.06
37832;BME280;23671;38.090;-122.570;2023-08-01T08:13:44;101377.13;;;19.82;40.07
37832;BME280;23671;38.090;-122.570;2023-08-01T08:16:11;101376.94;;;19.75;40.26
37832;BME280;23671;38.090;-122.570;2023-08-01T08:18:41;101380.47;;;19.76;40.02
37832;BME280;23671;38.090;-122.570;2023-08-01T08:21:08;101370.41;;;19.70;40.28
37832;BME280;23671;38.090;-122.570;2023-08-01T08:23:35;101373.38;;;19.67;40.10
37832;BME280;23671;38.090;-122.570;2023-08-01T08:26:02;101371.22;;;19.62;40.26
37832;BME280;23671;38.090;-122.570;2023-08-01T08:28:32;101376.88;;;19.59;40.35
37832;BME280;23671;38.090;-122.570;2023-08-01T08:31:09;101377.06;;;19.58;40.24
37832;BME280;23671;38.090;-122.570;2023-08-01T08:33:36;101374.03;;;19.53;40.08
37832;BME280;23671;38.090;-122.570;2023-08-01T08:36:03;101381.72;;;19.48;40.37
37832;BME280;23671;38.090;-122.570;2023-08-01T08:38:30;101376.69;;;19.45;40.26
37832;BME280;23671;38.090;-122.570;2023-08-01T08:41:10;101390.25;;;19.43;40.06
37832;BME280;23671;38.090;-122.570;2023-08-01T08:43:47;101383.53;;;19.39;40.47
37832;BME280;23671;38.090;-122.570;2023-08-01T08:46:17;101379.50;;;19.35;40.39
37832;BME280;23671;38.090;-122.570;2023-08-01T08:48:47;101386.00;;;19.33;40.60
37832;BME280;23671;38.090;-122.570;2023-08-01T08:51:14;101383.63;;;19.30;40.39
37832;BME280;23671;38.090;-122.570;2023-08-01T08:53:46;101382.44;;;19.24;40.44
37832;BME280;23671;38.090;-122.570;2023-08-01T08:56:16;101380.91;;;19.22;40.47
37832;BME280;23671;38.090;-122.570;2023-08-01T08:58:46;101379.56;;;19.18;40.54
37832;BME280;23671;38.090;-122.570;2023-08-01T09:01:14;101381.03;;;19.12;40.78
37832;BME280;23671;38.090;-122.570;2023-08-01T09:03:41;101387.56;;;19.10;40.88
37832;BME280;23671;38.090;-122.570;2023-08-01T09:06:17;101376.16;;;19.08;40.53
37832;BME280;23671;38.090;-122.570;2023-08-01T09:08:51;101369.31;;;19.05;40.69
37832;BME280;23671;38.090;-122.570;2023-08-01T09:11:24;101373.44;;;18.99;40.77
37832;BME280;23671;38.090;-122.570;2023-08-01T09:13:51;101379.81;;;18.98;40.80
37832;BME280;23671;38.090;-122.570;2023-08-01T09:16:21;101375.75;;;18.94;40.74
37832;BME280;23671;38.090;-122.570;2023-08-01T09:18:57;101385.78;;;18.92;40.84
37832;BME280;23671;38.090;-122.570;2023-08-01T09:21:24;101379.06;;;18.88;40.84
37832;BME280;23671;38.090;-122.570;2023-08-01T09:23:52;101374.88;;;18.86;40.93
37832;BME280;23671;38.090;-122.570;2023-08-01T09:26:20;101372.69;;;18.81;40.89
37832;BME280;23671;38.090;-122.570;2023-08-01T09:28:57;101371.16;;;18.79;40.88
37832;BME280;23671;38.090;-122.570;2023-08-01T09:31:30;101370.31;;;18.78;41.00
37832;BME280;23671;38.090;-122.570;2023-08-01T09:33:57;101369.97;;;18.73;40.88
37832;BME280;23671;38.090;-122.570;2023-08-01T09:36:25;101371.09;;;18.71;41.07
37832;BME280;23671;38.090;-122.570;2023-08-01T09:38:57;101361.72;;;18.67;41.06
37832;BME280;23671;38.090;-122.570;2023-08-01T09:41:28;101364.56;;;18.65;41.14
37832;BME280;23671;38.090;-122.570;2023-08-01T09:43:57;101371.22;;;18.61;41.16
37832;BME280;23671;38.090;-122.570;2023-08-01T09:46:25;101372.22;;;18.60;40.93
37832;BME280;23671;38.090;-122.570;2023-08-01T09:48:52;101361.00;;;18.57;41.17
37832;BME280;23671;38.090;-122.570;2023-08-01T09:51:19;101363.13;;;18.53;41.15
37832;BME280;23671;38.090;-122.570;2023-08-01T09:53:54;101362.44;;;18.51;41.26
37832;BME280;23671;38.090;-122.570;2023-08-01T09:56:23;101365.59;;;18.47;41.33
37832;BME280;23671;38.090;-122.570;2023-08-01T09:58:52;101366.75;;;18.44;41.21
37832;BME280;23671;38.090;-122.570;2023-08-01T10:01:24;101364.38;;;18.41;41.41
37832;BME280;23671;38.090;-122.570;2023-08-01T10:03:54;101364.50;;;18.40;41.40
37832;BME280;23671;38.090;-122.570;2023-08-01T10:06:24;101373.38;;;18.40;41.13
37832;BME280;23671;38.090;-122.570;2023-08-01T10:08:55;101363.28;;;18.34;41.41
37832;BME280;23671;38.090;-122.570;2023-08-01T10:11:23;101367.13;;;18.32;41.46
37832;BME280;23671;38.090;-122.570;2023-08-01T10:13:50;101371.94;;;18.28;41.46
37832;BME280;23671;38.090;-122.570;2023-08-01T10:16:18;101369.56;;;18.25;41.49
37832;BME280;23671;38.090;-122.570;2023-08-01T10:18:48;101364.56;;;18.22;41.59
37832;BME280;23671;38.090;-122.570;2023-08-01T10:21:17;101364.00;;;18.18;41.43
37832;BME280;23671;38.090;-122.570;2023-08-01T10:23:48;101345.44;;;18.17;41.40
37832;BME280;23671;38.090;-122.570;2023-08-01T10:26:18;101345.78;;;18.14;41.43
37832;BME280;23671;38.090;-122.570;2023-08-01T10:28:52;101348.72;;;18.11;41.51
37832;BME280;23671;38.090;-122.570;2023-08-01T10:31:20;101340.19;;;18.07;41.54
37832;BME280;23671;38.090;-122.570;2023-08-01T10:33:49;101349.34;;;18.05;41.60
37832;BME280;23671;38.090;-122.570;2023-08-01T10:36:25;101346.84;;;18.03;41.78
37832;BME280;23671;38.090;-122.570;2023-08-01T10:39:00;101341.50;;;18.03;41.71
37832;BME280;23671;38.090;-122.570;2023-08-01T10:41:35;101339.44;;;17.97;41.63
37832;BME280;23671;38.090;-122.570;2023-08-01T10:44:10;101348.63;;;17.95;41.85
37832;BME280;23671;38.090;-122.570;2023-08-01T10:46:52;101341.72;;;17.92;41.53
37832;BME280;23671;38.090;-122.570;2023-08-01T10:49:20;101345.69;;;17.88;41.88
37832;BME280;23671;38.090;-122.570;2023-08-01T10:52:03;101345.16;;;17.85;41.91
37832;BME280;23671;38.090;-122.570;2023-08-01T10:54:31;101340.53;;;17.87;41.82
37832;BME280;23671;38.090;-122.570;2023-08-01T10:57:00;101344.50;;;17.83;42.12
37832;BME280;23671;38.090;-122.570;2023-08-01T10:59:31;101344.94;;;17.78;42.17
37832;BME280;23671;38.090;-122.570;2023-08-01T11:02:00;101353.09;;;17.77;41.86
37832;BME280;23671;38.090;-122.570;2023-08-01T11:04:28;101351.56;;;17.74;42.03
37832;BME280;23671;38.090;-122.570;2023-08-01T11:06:55;101349.06;;;17.73;42.04
37832;BME280;23671;38.090;-122.570;2023-08-01T11:09:27;101352.84;;;17.70;41.97
37832;BME280;23671;38.090;-122.570;2023-08-01T11:11:58;101349.38;;;17.70;42.18
37832;BME280;23671;38.090;-122.570;2023-08-01T11:14:28;101350.34;;;17.69;42.21
37832;BME280;23671;38.090;-122.570;2023-08-01T11:16:57;101359.81;;;17.63;41.99
37832;BME280;23671;38.090;-122.570;2023-08-01T11:19:28;101359.13;;;17.61;42.29
37832;BME280;23671;38.090;-122.570;2023-08-01T11:21:56;101362.91;;;17.59;42.08
37832;BME280;23671;38.090;-122.570;2023-08-01T11:24:25;101357.75;;;17.57;41.95
37832;BME280;23671;38.090;-122.570;2023-08-01T11:26:54;101347.53;;;17.53;42.04
37832;BME280;23671;38.090;-122.570;2023-08-01T11:29:21;101350.19;;;17.53;42.15
37832;BME280;23671;38.090;-122.570;2023-08-01T11:31:56;101356.50;;;17.52;42.43
37832;BME280;23671;38.090;-122.570;2023-08-01T11:34:25;101358.66;;;17.48;42.09
37832;BME280;23671;38.090;-122.570;2023-08-01T11:36:52;101363.84;;;17.50;42.18
37832;BME280;23671;38.090;-122.570;2023-08-01T11:39:20;101363.25;;;17.46;42.30
37832;BME280;23671;38.090;-122.570;2023-08-01T11:41:49;101362.56;;;17.44;42.18
37832;BME280;23671;38.090;-122.570;2023-08-01T11:44:16;101359.22;;;17.42;42.41
37832;BME280;23671;38.090;-122.570;2023-08-01T11:46:43;101377.22;;;17.40;42.14
37832;BME280;23671;38.090;-122.570;2023-08-01T11:49:14;101377.53;;;17.37;42.19
37832;BME280;23671;38.090;-122.570;2023-08-01T11:51:50;101373.31;;;17.35;42.22
37832;BME280;23671;38.090;-122.570;2023-08-01T11:54:18;101380.63;;;17.33;42.24
37832;BME280;23671;38.090;-122.570;2023-08-01T11:57:01;101387.94;;;17.31;42.40
37832;BME280;23671;38.090;-122.570;2023-08-01T11:59:28;101386.97;;;17.32;42.56
37832;BME280;23671;38.090;-122.570;2023-08-01T12:01:55;101384.56;;;17.28;42.36
37832;BME280;23671;38.090;-122.570;2023-08-01T12:04:26;101390.22;;;17.25;42.45
37832;BME280;23671;38.090;-122.570;2023-08-01T12:06:54;101396.69;;;17.23;42.51
37832;BME280;23671;38.090;-122.570;2023-08-01T12:09:42;101393.16;;;17.22;42.53
37832;BME280;23671;38.090;-122.570;2023-08-01T12:12:10;101392.63;;;17.19;42.78
37832;BME280;23671;38.090;-122.570;2023-08-01T12:14:45;101399.78;;;17.18;42.78
37832;BME280;23671;38.090;-122.570;2023-08-01T12:17:13;101389.69;;;17.12;42.53
37832;BME280;23671;38.090;-122.570;2023-08-01T12:19:40;101404.88;;;17.12;42.76
37832;BME280;23671;38.090;-122.570;2023-08-01T12:22:07;101400.38;;;17.12;42.62
37832;BME280;23671;38.090;-122.570;2023-08-01T12:24:34;101398.84;;;17.10;42.98
37832;BME280;23671;38.090;-122.570;2023-08-01T12:27:06;101395.66;;;17.06;42.99
37832;BME280;23671;38.090;-122.570;2023-08-01T12:29:34;101399.28;;;17.05;42.70
37832;BME280;23671;38.090;-122.570;2023-08-01T12:32:02;101394.25;;;17.02;42.93
37832;BME280;23671;38.090;-122.570;2023-08-01T12:34:29;101406.91;;;17.00;43.04